Muncie, IN

1:11 AM EDT on July 08, 2015 (GMT -0400)
Ball State University | | Change Station
CLOSE
Current Station
Personal Weather Station
Location: Muncie, IN
Elevation: 968 ft
Nearby Weather Stations

Elev 968 ft 40.20 °N, 85.41 °W | Updated 1 minute ago

Overcast
Overcast
61.3 °F
Feels Like 61.3 °F
N
1.0
Wind Variable Wind from West
Gusts 1.0 mph

Today
High -- | Low -- °F
--% Chance of Precip.
Yesterday
High -- | Low -- °F
Precip. -- in
6:19 AM 9:13 PM
Waning Gibbous, 57% visible
Pressure 30.04 in
Visibility 10.0 miles
Clouds Overcast 1900 ft
Dew Point 57 °F
Humidity 85%
Rainfall 0.00 in
Snow Depth Not available.
UV 0 out of 12
Pollen .50 out of 12
Air Quality Not available.
Flu Activity Not available.
METAR KMIE 080453Z AUTO 32005KT 10SM OVC019 17/13 A3006 RMK AO2 SLP171 T01670133 402610167

More Conditions Fewer Conditions

Pressure 30.04 in
Visibility 10.0 miles
Clouds Overcast 1900 ft
Dew Point 57 °F
Humidity 85%
Rainfall 0.00 in
Snow Depth Not available.
UV 0 out of 12
Pollen .50 out of 12
Air Quality Not available.
Flu Activity Not available.
METAR KMIE 080453Z AUTO 32005KT 10SM OVC019 17/13 A3006 RMK AO2 SLP171 T01670133 402610167

More Conditions Fewer Conditions

10-Day Weather Forecast

×

Almanac

Astronomy

Jul. 08, 2015 Rise Set
Actual Time
Civil Twilight
Nautical Twilight
Astronomical Twilight
Moon
Length of Visible Light
Length of Day
Tomorrow will be .
, % of the Moon is Illuminated

Today's Extremes

State Highs State Lows

Community

WunderPhotos

Upload Photos

1,836,057 photos uploaded!

WunderBlogs® & News

Nearby

Air Quality

  Air Quality AQ Index Pollutant
Not available.

Snow Depth

Station Depth Elevation

Earthquake Activity

City Distance Mag. Time & Date
Minimum magnitude displayed is 2.5.

Coastal Water Temperatures

Place Temperature

Stations

Nearby Weather Stations

Station Location Temp. Windchill Dew Point Humidity Wind Precip. Elev Updated Type